createdAt,value
2022-10-06T03:40:12.968Z,100686.53
2022-10-06T03:51:09.353Z,100686.50
2022-10-06T03:55:39.975Z,100677.00
2022-10-06T07:10:31.866Z,100789.19
2022-10-06T07:13:17.396Z,100789.41
2022-10-06T07:16:09.629Z,100796.97
2022-10-06T07:22:14.368Z,100789.06
2022-10-06T07:25:02.736Z,100792.53
2022-10-06T07:27:38.988Z,100789.87
2022-10-06T07:30:16.514Z,100798.56
2022-10-06T07:32:47.001Z,100796.75
2022-10-06T07:35:21.646Z,100802.56
2022-10-06T07:37:56.184Z,100804.31
2022-10-06T07:40:29.886Z,100803.47
2022-10-06T07:43:04.595Z,100801.88
2022-10-06T07:45:42.901Z,100798.28
2022-10-06T07:48:14.637Z,100798.19
2022-10-06T07:50:49.849Z,100802.28
2022-10-06T07:53:35.903Z,100803.91
2022-10-06T07:56:13.442Z,100809.00
2022-10-06T07:58:53.731Z,100809.59
2022-10-06T08:01:27.469Z,100807.13
2022-10-06T08:04:21.629Z,100817.22
2022-10-06T08:06:51.327Z,100814.09
2022-10-06T08:09:28.594Z,100811.72
2022-10-06T08:12:24.405Z,100815.31
2022-10-06T08:14:55.802Z,100812.63
2022-10-06T08:17:26.285Z,100815.88
2022-10-06T08:19:57.132Z,100816.59
2022-10-06T08:22:31.602Z,100807.84
2022-10-06T08:25:06.753Z,100813.66
2022-10-06T08:27:39.461Z,100814.28
2022-10-06T08:30:12.876Z,100818.78
2022-10-06T08:32:43.843Z,100817.41
2022-10-06T08:35:23.200Z,100818.16
2022-10-06T08:37:54.496Z,100817.94
2022-10-06T08:40:23.852Z,100818.81
2022-10-06T08:42:58.676Z,100815.84
2022-10-06T08:45:38.959Z,100816.22
2022-10-06T08:48:19.144Z,100818.81
2022-10-06T08:50:51.435Z,100818.50
2022-10-06T08:53:23.431Z,100822.12
2022-10-06T08:55:54.089Z,100822.50
2022-10-06T09:01:05.635Z,100821.34
2022-10-06T09:03:36.106Z,100819.03
2022-10-06T12:20:05.547Z,100781.00
2022-10-06T12:29:46.640Z,100772.19
2022-10-06T13:23:56.503Z,100737.06
2022-10-06T13:30:39.018Z,100733.56
2022-10-06T13:33:24.239Z,100730.75
2022-10-06T13:36:25.913Z,100732.69
2022-10-06T13:39:07.256Z,100721.78
2022-10-06T13:48:39.346Z,100727.19
2022-10-06T13:51:24.712Z,100728.50
2022-10-06T14:00:54.594Z,100734.97
2022-10-06T14:03:40.888Z,100734.38
2022-10-06T14:06:36.716Z,100724.97
2022-10-06T23:22:24.539Z,100924.53
2022-10-06T23:25:27.112Z,100924.41
2022-10-06T23:28:16.774Z,100916.62
2022-10-06T23:30:47.006Z,100920.88
2022-10-06T23:34:10.106Z,100920.25
2022-10-06T23:37:11.489Z,100917.38
2022-10-06T23:40:02.208Z,100912.19
2022-10-06T23:43:32.848Z,100920.09
2022-10-06T23:47:23.040Z,100914.75
